sensor_id;sensor_type;location;lat;lon;timestamp;pressure;altitude;pressure_sealevel;temperature;humidity
8501;BME280;4288;48.484;10.024;2022-07-09T00:02:12;96721.41;;;21.16;56.64
8501;BME280;4288;48.484;10.024;2022-07-09T00:04:39;96720.66;;;21.16;56.88
8501;BME280;4288;48.484;10.024;2022-07-09T00:07:06;96725.31;;;21.15;56.90
8501;BME280;4288;48.484;10.024;2022-07-09T00:09:33;96721.03;;;21.14;56.94
8501;BME280;4288;48.484;10.024;2022-07-09T00:12:00;96725.75;;;21.14;56.89
8501;BME280;4288;48.484;10.024;2022-07-09T00:14:27;96723.78;;;21.14;56.91
8501;BME280;4288;48.484;10.024;2022-07-09T00:16:55;96717.59;;;21.14;56.79
8501;BME280;4288;48.484;10.024;2022-07-09T00:19:24;96714.09;;;21.13;56.56
8501;BME280;4288;48.484;10.024;2022-07-09T00:21:51;96709.81;;;21.12;56.53
8501;BME280;4288;48.484;10.024;2022-07-09T00:24:18;96716.03;;;21.13;56.80
8501;BME280;4288;48.484;10.024;2022-07-09T00:26:45;96717.97;;;21.12;56.79
8501;BME280;4288;48.484;10.024;2022-07-09T00:29:12;96703.63;;;21.12;56.83
8501;BME280;4288;48.484;10.024;2022-07-09T00:31:40;96708.31;;;21.11;56.83
8501;BME280;4288;48.484;10.024;2022-07-09T00:34:07;96703.28;;;21.10;56.61
8501;BME280;4288;48.484;10.024;2022-07-09T00:36:35;96693.59;;;21.09;56.62
8501;BME280;4288;48.484;10.024;2022-07-09T00:39:02;96701.75;;;21.09;56.85
8501;BME280;4288;48.484;10.024;2022-07-09T00:41:30;96692.81;;;21.08;56.54
8501;BME280;4288;48.484;10.024;2022-07-09T00:43:57;96692.06;;;21.08;56.69
8501;BME280;4288;48.484;10.024;2022-07-09T00:46:24;96688.56;;;21.07;56.74
8501;BME280;4288;48.484;10.024;2022-07-09T00:48:51;96689.00;;;21.06;56.81
8501;BME280;4288;48.484;10.024;2022-07-09T00:51:19;96689.00;;;21.06;56.88
8501;BME280;4288;48.484;10.024;2022-07-09T00:53:48;96688.22;;;21.05;56.71
8501;BME280;4288;48.484;10.024;2022-07-09T00:56:17;96687.44;;;21.05;56.59
8501;BME280;4288;48.484;10.024;2022-07-09T00:58:45;96680.50;;;21.04;56.69
8501;BME280;4288;48.484;10.024;2022-07-09T01:01:12;96679.72;;;21.03;56.75
8501;BME280;4288;48.484;10.024;2022-07-09T01:03:40;96681.25;;;21.04;56.66
8501;BME280;4288;48.484;10.024;2022-07-09T01:06:07;96678.94;;;21.03;56.66
8501;BME280;4288;48.484;10.024;2022-07-09T01:08:34;96681.66;;;21.03;56.60
8501;BME280;4288;48.484;10.024;2022-07-09T01:11:03;96675.06;;;21.04;56.43
8501;BME280;4288;48.484;10.024;2022-07-09T01:13:30;96676.22;;;21.03;56.59
8501;BME280;4288;48.484;10.024;2022-07-09T01:15:58;96674.72;;;21.02;56.59
8501;BME280;4288;48.484;10.024;2022-07-09T01:18:25;96676.66;;;21.01;56.53
8501;BME280;4288;48.484;10.024;2022-07-09T01:20:53;96665.00;;;21.01;56.48
8501;BME280;4288;48.484;10.024;2022-07-09T01:23:20;96666.94;;;21.00;56.81
8501;BME280;4288;48.484;10.024;2022-07-09T01:25:48;96657.66;;;20.98;56.75
8501;BME280;4288;48.484;10.024;2022-07-09T01:28:15;96663.47;;;21.00;56.82
8501;BME280;4288;48.484;10.024;2022-07-09T01:30:42;96658.44;;;20.98;56.68
8501;BME280;4288;48.484;10.024;2022-07-09T01:33:09;96650.28;;;20.98;56.70
8501;BME280;4288;48.484;10.024;2022-07-09T01:35:37;96654.19;;;20.97;56.78
8501;BME280;4288;48.484;10.024;2022-07-09T01:38:05;96650.28;;;20.98;56.62
8501;BME280;4288;48.484;10.024;2022-07-09T01:40:32;96651.81;;;20.99;56.55
8501;BME280;4288;48.484;10.024;2022-07-09T01:42:59;96646.78;;;20.98;56.55
8501;BME280;4288;48.484;10.024;2022-07-09T01:45:26;96647.56;;;20.98;56.40
8501;BME280;4288;48.484;10.024;2022-07-09T01:47:53;96646.03;;;20.97;56.56
8501;BME280;4288;48.484;10.024;2022-07-09T01:50:21;96644.09;;;20.98;56.51
8501;BME280;4288;48.484;10.024;2022-07-09T01:52:48;96640.59;;;20.97;56.55
8501;BME280;4288;48.484;10.024;2022-07-09T01:55:18;96637.09;;;20.97;56.43
8501;BME280;4288;48.484;10.024;2022-07-09T01:57:45;96637.09;;;20.97;56.51
8501;BME280;4288;48.484;10.024;2022-07-09T02:00:13;96624.69;;;20.96;56.33
8501;BME280;4288;48.484;10.024;2022-07-09T02:02:41;96627.84;;;20.94;56.75
8501;BME280;4288;48.484;10.024;2022-07-09T02:05:08;96630.56;;;20.94;56.51
8501;BME280;4288;48.484;10.024;2022-07-09T02:07:36;96623.16;;;20.95;56.64
8501;BME280;4288;48.484;10.024;2022-07-09T02:10:03;96625.13;;;20.94;56.71
8501;BME280;4288;48.484;10.024;2022-07-09T02:12:32;96618.16;;;20.93;56.46
8501;BME280;4288;48.484;10.024;2022-07-09T02:14:59;96629.03;;;20.93;56.44
8501;BME280;4288;48.484;10.024;2022-07-09T02:17:26;96626.72;;;20.92;56.60
8501;BME280;4288;48.484;10.024;2022-07-09T02:19:53;96621.28;;;20.92;56.50
8501;BME280;4288;48.484;10.024;2022-07-09T02:22:21;96623.22;;;20.91;56.55
8501;BME280;4288;48.484;10.024;2022-07-09T02:24:48;96617.78;;;20.91;56.39
8501;BME280;4288;48.484;10.024;2022-07-09T02:27:15;96620.94;;;20.90;56.66
8501;BME280;4288;48.484;10.024;2022-07-09T02:29:43;96612.00;;;20.89;56.47
8501;BME280;4288;48.484;10.024;2022-07-09T02:32:11;96617.44;;;20.89;56.50
8501;BME280;4288;48.484;10.024;2022-07-09T02:34:38;96612.00;;;20.89;56.55
8501;BME280;4288;48.484;10.024;2022-07-09T02:37:06;96610.84;;;20.90;56.45
8501;BME280;4288;48.484;10.024;2022-07-09T02:39:34;96608.56;;;20.89;56.48
8501;BME280;4288;48.484;10.024;2022-07-09T02:42:01;96610.50;;;20.88;56.40
8501;BME280;4288;48.484;10.024;2022-07-09T02:44:28;96613.63;;;20.87;56.47
8501;BME280;4288;48.484;10.024;2022-07-09T02:46:57;96616.34;;;20.87;56.49
8501;BME280;4288;48.484;10.024;2022-07-09T02:49:25;96615.59;;;20.86;56.42
8501;BME280;4288;48.484;10.024;2022-07-09T02:51:52;96616.34;;;20.87;56.32
8501;BME280;4288;48.484;10.024;2022-07-09T02:54:20;96615.59;;;20.86;56.63
8501;BME280;4288;48.484;10.024;2022-07-09T02:56:47;96611.31;;;20.85;56.55
8501;BME280;4288;48.484;10.024;2022-07-09T02:59:14;96616.00;;;20.85;56.42
8501;BME280;4288;48.484;10.024;2022-07-09T03:01:41;96612.53;;;20.84;56.36
8501;BME280;4288;48.484;10.024;2022-07-09T03:04:10;96610.22;;;20.83;56.65
8501;BME280;4288;48.484;10.024;2022-07-09T03:06:37;96612.53;;;20.84;56.51
8501;BME280;4288;48.484;10.024;2022-07-09T03:09:04;96616.41;;;20.83;56.27
8501;BME280;4288;48.484;10.024;2022-07-09T03:11:32;96616.06;;;20.81;56.63
8501;BME280;4288;48.484;10.024;2022-07-09T03:13:59;96611.81;;;20.80;56.40
8501;BME280;4288;48.484;10.024;2022-07-09T03:16:26;96609.88;;;20.81;56.21
8501;BME280;4288;48.484;10.024;2022-07-09T03:18:53;96606.38;;;20.80;56.23
8501;BME280;4288;48.484;10.024;2022-07-09T03:21:22;96615.72;;;20.79;56.50
8501;BME280;4288;48.484;10.024;2022-07-09T03:23:49;96612.25;;;20.79;56.28
8501;BME280;4288;48.484;10.024;2022-07-09T03:26:16;96612.66;;;20.77;56.26
8501;BME280;4288;48.484;10.024;2022-07-09T03:28:43;96610.69;;;20.78;56.23
8501;BME280;4288;48.484;10.024;2022-07-09T03:31:10;96616.13;;;20.78;56.42
8501;BME280;4288;48.484;10.024;2022-07-09T03:33:38;96611.56;;;20.75;56.31
8501;BME280;4288;48.484;10.024;2022-07-09T03:36:05;96612.31;;;20.75;56.20
8501;BME280;4288;48.484;10.024;2022-07-09T03:38:34;96618.94;;;20.74;56.45
8501;BME280;4288;48.484;10.024;2022-07-09T03:41:01;96618.94;;;20.74;56.30
8501;BME280;4288;48.484;10.024;2022-07-09T03:43:28;96618.16;;;20.74;56.57
8501;BME280;4288;48.484;10.024;2022-07-09T03:45:55;96622.84;;;20.73;56.38
8501;BME280;4288;48.484;10.024;2022-07-09T03:48:22;96620.13;;;20.73;56.36
8501;BME280;4288;48.484;10.024;2022-07-09T03:50:50;96620.53;;;20.72;56.22
8501;BME280;4288;48.484;10.024;2022-07-09T03:53:17;96620.53;;;20.72;56.42
8501;BME280;4288;48.484;10.024;2022-07-09T03:55:45;96621.72;;;20.71;56.28
8501;BME280;4288;48.484;10.024;2022-07-09T03:58:12;96625.22;;;20.71;56.30
8501;BME280;4288;48.484;10.024;2022-07-09T04:00:39;96622.16;;;20.69;56.55
8501;BME280;4288;48.484;10.024;2022-07-09T04:03:07;96624.09;;;20.69;56.56
8501;BME280;4288;48.484;10.024;2022-07-09T04:05:34;96622.16;;;20.69;56.60
8501;BME280;4288;48.484;10.024;2022-07-09T04:08:01;96628.75;;;20.68;56.19
8501;BME280;4288;48.484;10.024;2022-07-09T04:10:28;96626.81;;;20.69;56.57
8501;BME280;4288;48.484;10.024;2022-07-09T04:12:58;96619.81;;;20.68;56.49
8501;BME280;4288;48.484;10.024;2022-07-09T04:15:25;96625.25;;;20.68;56.48
8501;BME280;4288;48.484;10.024;2022-07-09T04:17:52;96624.50;;;20.67;56.48
8501;BME280;4288;48.484;10.024;2022-07-09T04:20:19;96617.53;;;20.66;56.24
8501;BME280;4288;48.484;10.024;2022-07-09T04:22:47;96621.03;;;20.67;56.16
8501;BME280;4288;48.484;10.024;2022-07-09T04:25:14;96622.97;;;20.66;56.42
8501;BME280;4288;48.484;10.024;2022-07-09T04:27:41;96622.19;;;20.66;56.13
8501;BME280;4288;48.484;10.024;2022-07-09T04:30:10;96621.44;;;20.65;56.25
8501;BME280;4288;48.484;10.024;2022-07-09T04:32:37;96623.75;;;20.67;56.45
8501;BME280;4288;48.484;10.024;2022-07-09T04:35:06;96622.97;;;20.66;56.29
8501;BME280;4288;48.484;10.024;2022-07-09T04:37:33;96630.34;;;20.66;56.19
8501;BME280;4288;48.484;10.024;2022-07-09T04:40:00;96622.19;;;20.66;56.11
8501;BME280;4288;48.484;10.024;2022-07-09T04:42:27;96632.31;;;20.65;56.32
8501;BME280;4288;48.484;10.024;2022-07-09T04:44:54;96630.34;;;20.66;56.37
8501;BME280;4288;48.484;10.024;2022-07-09T04:47:24;96628.81;;;20.65;56.20
8501;BME280;4288;48.484;10.024;2022-07-09T04:49:52;96637.75;;;20.65;56.08
8501;BME280;4288;48.484;10.024;2022-07-09T04:52:19;96630.78;;;20.64;56.45
8501;BME280;4288;48.484;10.024;2022-07-09T04:54:46;96641.63;;;20.64;56.42
8501;BME280;4288;48.484;10.024;2022-07-09T04:57:14;96640.88;;;20.64;56.22
8501;BME280;4288;48.484;10.024;2022-07-09T04:59:41;96640.88;;;20.64;56.27
8501;BME280;4288;48.484;10.024;2022-07-09T05:02:08;96642.84;;;20.63;56.09
8501;BME280;4288;48.484;10.024;2022-07-09T05:04:36;96630.41;;;20.62;56.08
8501;BME280;4288;48.484;10.024;2022-07-09T05:07:04;96639.78;;;20.61;56.14
8501;BME280;4288;48.484;10.024;2022-07-09T05:09:32;96635.06;;;20.62;56.37
8501;BME280;4288;48.484;10.024;2022-07-09T05:11:59;96639.78;;;20.61;56.13
8501;BME280;4288;48.484;10.024;2022-07-09T05:14:26;96642.47;;;20.61;56.40
8501;BME280;4288;48.484;10.024;2022-07-09T05:16:54;96649.09;;;20.60;56.37
8501;BME280;4288;48.484;10.024;2022-07-09T05:19:21;96649.50;;;20.59;56.32
8501;BME280;4288;48.484;10.024;2022-07-09T05:21:49;96649.50;;;20.59;56.23
8501;BME280;4288;48.484;10.024;2022-07-09T05:24:16;96646.78;;;20.59;56.23
8501;BME280;4288;48.484;10.024;2022-07-09T05:26:43;96651.44;;;20.58;56.13
8501;BME280;4288;48.484;10.024;2022-07-09T05:29:10;96648.00;;;20.58;56.19
8501;BME280;4288;48.484;10.024;2022-07-09T05:31:38;96641.00;;;20.57;56.17
8501;BME280;4288;48.484;10.024;2022-07-09T05:34:05;96641.78;;;20.57;56.24
8501;BME280;4288;48.484;10.024;2022-07-09T05:36:34;96641.00;;;20.57;56.08
8501;BME280;4288;48.484;10.024;2022-07-09T05:39:02;96638.28;;;20.57;55.98
8501;BME280;4288;48.484;10.024;2022-07-09T05:41:29;96642.22;;;20.56;56.01
8501;BME280;4288;48.484;10.024;2022-07-09T05:43:56;96646.44;;;20.57;55.94
8501;BME280;4288;48.484;10.024;2022-07-09T05:46:24;96632.50;;;20.55;56.23
8501;BME280;4288;48.484;10.024;2022-07-09T05:48:51;96646.88;;;20.55;55.94
8501;BME280;4288;48.484;10.024;2022-07-09T05:51:18;96638.38;;;20.53;55.82
8501;BME280;4288;48.484;10.024;2022-07-09T05:53:45;96647.28;;;20.54;55.91
8501;BME280;4288;48.484;10.024;2022-07-09T05:56:14;96643.38;;;20.55;56.06
8501;BME280;4288;48.484;10.024;2022-07-09T05:58:41;96644.56;;;20.54;56.11
8501;BME280;4288;48.484;10.024;2022-07-09T06:01:08;96643.78;;;20.53;56.04
8501;BME280;4288;48.484;10.024;2022-07-09T06:03:35;96641.84;;;20.54;55.91
8501;BME280;4288;48.484;10.024;2022-07-09T06:06:02;96636.44;;;20.54;56.21
8501;BME280;4288;48.484;10.024;2022-07-09T06:08:30;96642.59;;;20.54;55.80
8501;BME280;4288;48.484;10.024;2022-07-09T06:10:59;96647.28;;;20.54;56.07
8501;BME280;4288;48.484;10.024;2022-07-09T06:13:27;96643.78;;;20.53;55.90
8501;BME280;4288;48.484;10.024;2022-07-09T06:15:55;96641.09;;;20.53;56.19
8501;BME280;4288;48.484;10.024;2022-07-09T06:18:22;96647.28;;;20.54;56.25
8501;BME280;4288;48.484;10.024;2022-07-09T06:20:49;96641.09;;;20.53;55.93
8501;BME280;4288;48.484;10.024;2022-07-09T06:23:17;96635.66;;;20.53;56.22
8501;BME280;4288;48.484;10.024;2022-07-09T06:25:44;96638.38;;;20.53;55.82
8501;BME280;4288;48.484;10.024;2022-07-09T06:28:11;96638.38;;;20.53;56.06
8501;BME280;4288;48.484;10.024;2022-07-09T06:30:39;96631.00;;;20.54;56.21
8501;BME280;4288;48.484;10.024;2022-07-09T06:33:06;96627.84;;;20.55;56.12
8501;BME280;4288;48.484;10.024;2022-07-09T06:35:33;96623.19;;;20.56;55.98
8501;BME280;4288;48.484;10.024;2022-07-09T06:38:01;96621.66;;;20.55;56.07
8501;BME280;4288;48.484;10.024;2022-07-09T06:40:28;96613.06;;;20.56;56.05
8501;BME280;4288;48.484;10.024;2022-07-09T06:42:55;96615.78;;;20.56;56.06
8501;BME280;4288;48.484;10.024;2022-07-09T06:45:22;96613.06;;;20.56;56.16
8501;BME280;4288;48.484;10.024;2022-07-09T06:47:51;96611.13;;;20.57;56.01
8501;BME280;4288;48.484;10.024;2022-07-09T06:50:19;96611.13;;;20.57;56.14
8501;BME280;4288;48.484;10.024;2022-07-09T06:52:47;96609.97;;;20.58;56.07
8501;BME280;4288;48.484;10.024;2022-07-09T06:55:14;96612.69;;;20.58;55.98
8501;BME280;4288;48.484;10.024;2022-07-09T06:57:41;96604.53;;;20.58;55.89
8501;BME280;4288;48.484;10.024;2022-07-09T07:00:09;96606.03;;;20.59;56.32
8501;BME280;4288;48.484;10.024;2022-07-09T07:02:36;96626.59;;;20.60;56.09
8501;BME280;4288;48.484;10.024;2022-07-09T07:05:06;96619.19;;;20.60;56.11
8501;BME280;4288;48.484;10.024;2022-07-09T07:07:33;96621.22;;;20.56;56.11
8501;BME280;4288;48.484;10.024;2022-07-09T07:10:01;96629.72;;;20.58;55.92
8501;BME280;4288;48.484;10.024;2022-07-09T07:12:28;96618.47;;;20.60;56.02
8501;BME280;4288;48.484;10.024;2022-07-09T07:14:55;96621.91;;;20.60;55.97
8501;BME280;4288;48.484;10.024;2022-07-09T07:17:22;96619.97;;;20.61;56.17
8501;BME280;4288;48.484;10.024;2022-07-09T07:19:49;96626.19;;;20.61;56.29
8501;BME280;4288;48.484;10.024;2022-07-09T07:22:17;96618.78;;;20.62;56.48
8501;BME280;4288;48.484;10.024;2022-07-09T07:24:45;96618.78;;;20.62;56.30
8501;BME280;4288;48.484;10.024;2022-07-09T07:27:12;96616.84;;;20.62;56.58
8501;BME280;4288;48.484;10.024;2022-07-09T07:29:39;96605.97;;;20.62;56.39
8501;BME280;4288;48.484;10.024;2022-07-09T07:32:08;96612.19;;;20.63;56.29
8501;BME280;4288;48.484;10.024;2022-07-09T07:34:35;96609.47;;;20.63;56.10
8501;BME280;4288;48.484;10.024;2022-07-09T07:37:03;96605.97;;;20.62;56.15
8501;BME280;4288;48.484;10.024;2022-07-09T07:39:32;96606.75;;;20.63;55.96
8501;BME280;4288;48.484;10.024;2022-07-09T07:41:59;96595.09;;;20.62;56.09
8501;BME280;4288;48.484;10.024;2022-07-09T07:44:26;96604.03;;;20.63;56.26
8501;BME280;4288;48.484;10.024;2022-07-09T07:46:54;96602.09;;;20.63;56.16
8501;BME280;4288;48.484;10.024;2022-07-09T07:49:22;96600.88;;;20.64;56.31
8501;BME280;4288;48.484;10.024;2022-07-09T07:51:49;96601.66;;;20.65;56.47
8501;BME280;4288;48.484;10.024;2022-07-09T07:54:16;96588.84;;;20.65;56.26
8501;BME280;4288;48.484;10.024;2022-07-09T07:56:44;96592.31;;;20.66;56.29
8501;BME280;4288;48.484;10.024;2022-07-09T07:59:11;96600.47;;;20.66;56.21
8501;BME280;4288;48.484;10.024;2022-07-09T08:01:38;96590.38;;;20.66;56.38
8501;BME280;4288;48.484;10.024;2022-07-09T08:04:06;96593.44;;;20.68;56.42
8501;BME280;4288;48.484;10.024;2022-07-09T08:06:33;96594.22;;;20.69;56.35
8501;BME280;4288;48.484;10.024;2022-07-09T08:09:01;96596.91;;;20.69;56.48
8501;BME280;4288;48.484;10.024;2022-07-09T08:11:28;96594.97;;;20.69;56.60
8501;BME280;4288;48.484;10.024;2022-07-09T08:13:56;96597.69;;;20.69;56.44
8501;BME280;4288;48.484;10.024;2022-07-09T08:16:24;96600.41;;;20.69;56.61
8501;BME280;4288;48.484;10.024;2022-07-09T08:18:51;96603.88;;;20.70;56.67
8501;BME280;4288;48.484;10.024;2022-07-09T08:21:18;96599.63;;;20.69;56.62
8501;BME280;4288;48.484;10.024;2022-07-09T08:23:45;96605.84;;;20.69;56.78
8501;BME280;4288;48.484;10.024;2022-07-09T08:26:20;96605.84;;;20.69;56.58
8501;BME280;4288;48.484;10.024;2022-07-09T08:28:48;96599.22;;;20.70;56.66
8501;BME280;4288;48.484;10.024;2022-07-09T08:31:18;96601.16;;;20.70;56.70
8501;BME280;4288;48.484;10.024;2022-07-09T08:33:45;96600.41;;;20.69;56.67
8501;BME280;4288;48.484;10.024;2022-07-09T08:36:13;96599.22;;;20.70;56.64
8501;BME280;4288;48.484;10.024;2022-07-09T08:38:40;96596.50;;;20.70;56.74
8501;BME280;4288;48.484;10.024;2022-07-09T08:41:07;96593.78;;;20.70;56.94
8501;BME280;4288;48.484;10.024;2022-07-09T08:43:37;96592.25;;;20.69;56.60
8501;BME280;4288;48.484;10.024;2022-07-09T08:46:05;96595.72;;;20.70;56.77
8501;BME280;4288;48.484;10.024;2022-07-09T08:48:36;96594.97;;;20.69;56.87
8501;BME280;4288;48.484;10.024;2022-07-09T08:51:04;96594.97;;;20.69;56.64
8501;BME280;4288;48.484;10.024;2022-07-09T08:53:32;96593.44;;;20.68;56.87
8501;BME280;4288;48.484;10.024;2022-07-09T08:55:59;96596.16;;;20.68;56.83
8501;BME280;4288;48.484;10.024;2022-07-09T08:58:27;96588.78;;;20.69;56.92
8501;BME280;4288;48.484;10.024;2022-07-09T09:00:54;96586.41;;;20.71;56.95
8501;BME280;4288;48.484;10.024;2022-07-09T09:03:23;96581.75;;;20.71;56.90
8501;BME280;4288;48.484;10.024;2022-07-09T09:06:03;96583.25;;;20.72;56.65
8501;BME280;4288;48.484;10.024;2022-07-09T09:08:34;96580.53;;;20.72;56.80
8501;BME280;4288;48.484;10.024;2022-07-09T09:11:03;96574.69;;;20.74;56.70
8501;BME280;4288;48.484;10.024;2022-07-09T09:13:32;96571.97;;;20.74;56.64
8501;BME280;4288;48.484;10.024;2022-07-09T09:16:05;96575.44;;;20.74;56.79
8501;BME280;4288;48.484;10.024;2022-07-09T09:18:34;96574.28;;;20.75;56.83
8501;BME280;4288;48.484;10.024;2022-07-09T09:21:06;96566.13;;;20.75;57.07
8501;BME280;4288;48.484;10.024;2022-07-09T09:23:41;96564.94;;;20.76;56.97
8501;BME280;4288;48.484;10.024;2022-07-09T09:26:10;96559.50;;;20.76;57.11
8501;BME280;4288;48.484;10.024;2022-07-09T09:28:48;96555.25;;;20.75;56.92
8501;BME280;4288;48.484;10.024;2022-07-09T09:31:25;96557.97;;;20.75;57.00
8501;BME280;4288;48.484;10.024;2022-07-09T09:33:54;96557.22;;;20.75;56.90
8501;BME280;4288;48.484;10.024;2022-07-09T09:36:32;96548.28;;;20.74;57.07
8501;BME280;4288;48.484;10.024;2022-07-09T09:39:15;96554.50;;;20.75;57.24
8501;BME280;4288;48.484;10.024;2022-07-09T09:41:45;96547.84;;;20.76;57.16
8501;BME280;4288;48.484;10.024;2022-07-09T09:44:14;96551.78;;;20.75;57.50
8501;BME280;4288;48.484;10.024;2022-07-09T09:46:43;96547.84;;;20.76;57.36
8501;BME280;4288;48.484;10.024;2022-07-09T09:49:12;96545.91;;;20.76;57.32
8501;BME280;4288;48.484;10.024;2022-07-09T09:51:48;96543.19;;;20.76;57.21
8501;BME280;4288;48.484;10.024;2022-07-09T09:54:17;96547.44;;;20.77;57.20
8501;BME280;4288;48.484;10.024;2022-07-09T09:56:45;96540.47;;;20.76;57.16
8501;BME280;4288;48.484;10.024;2022-07-09T09:59:13;96538.53;;;20.77;57.21
8501;BME280;4288;48.484;10.024;2022-07-09T10:01:41;96536.91;;;20.79;57.46
8501;BME280;4288;48.484;10.024;2022-07-09T10:04:10;96534.19;;;20.79;57.55
8501;BME280;4288;48.484;10.024;2022-07-09T10:06:38;96530.28;;;20.80;57.29
8501;BME280;4288;48.484;10.024;2022-07-09T10:09:10;96532.59;;;20.82;57.41
8501;BME280;4288;48.484;10.024;2022-07-09T10:11:39;96527.91;;;20.82;57.40
8501;BME280;4288;48.484;10.024;2022-07-09T10:14:07;96517.06;;;20.82;57.63
8501;BME280;4288;48.484;10.024;2022-07-09T10:16:36;96526.31;;;20.85;57.55
8501;BME280;4288;48.484;10.024;2022-07-09T10:19:04;96523.19;;;20.86;57.70
8501;BME280;4288;48.484;10.024;2022-07-09T10:21:36;96510.03;;;20.85;57.65
8501;BME280;4288;48.484;10.024;2022-07-09T10:24:07;96513.09;;;20.87;57.46
8501;BME280;4288;48.484;10.024;2022-07-09T10:26:45;96511.88;;;20.88;57.69
8501;BME280;4288;48.484;10.024;2022-07-09T10:29:21;96516.88;;;20.89;57.53
8501;BME280;4288;48.484;10.024;2022-07-09T10:31:49;96511.44;;;20.89;57.82
8501;BME280;4288;48.484;10.024;2022-07-09T10:34:43;96516.13;;;20.89;57.78
8501;BME280;4288;48.484;10.024;2022-07-09T10:37:11;96516.50;;;20.91;57.92
8501;BME280;4288;48.484;10.024;2022-07-09T10:39:40;96514.50;;;20.91;58.07
8501;BME280;4288;48.484;10.024;2022-07-09T10:42:17;96514.50;;;20.91;58.03
8501;BME280;4288;48.484;10.024;2022-07-09T10:44:46;96511.38;;;20.93;58.08
8501;BME280;4288;48.484;10.024;2022-07-09T10:47:15;96509.41;;;20.93;58.06
8501;BME280;4288;48.484;10.024;2022-07-09T10:49:43;96514.84;;;20.93;57.86
8501;BME280;4288;48.484;10.024;2022-07-09T10:52:10;96514.84;;;20.93;57.84
8501;BME280;4288;48.484;10.024;2022-07-09T10:54:47;96512.91;;;20.94;58.11
8501;BME280;4288;48.484;10.024;2022-07-09T10:57:15;96515.63;;;20.94;58.06
8501;BME280;4288;48.484;10.024;2022-07-09T10:59:46;96514.09;;;20.93;58.03
8501;BME280;4288;48.484;10.024;2022-07-09T11:02:20;96513.34;;;20.92;57.98
8501;BME280;4288;48.484;10.024;2022-07-09T11:04:52;96506.69;;;20.93;57.97
8501;BME280;4288;48.484;10.024;2022-07-09T11:07:21;96516.81;;;20.93;58.04
8501;BME280;4288;48.484;10.024;2022-07-09T11:09:51;96512.91;;;20.94;57.99
8501;BME280;4288;48.484;10.024;2022-07-09T11:12:20;96506.69;;;20.93;58.08
8501;BME280;4288;48.484;10.024;2022-07-09T11:14:50;96506.69;;;20.93;57.83
8501;BME280;4288;48.484;10.024;2022-07-09T11:17:19;96500.84;;;20.95;57.83
8501;BME280;4288;48.484;10.024;2022-07-09T11:19:48;96493.47;;;20.95;58.07
8501;BME280;4288;48.484;10.024;2022-07-09T11:22:15;96493.03;;;20.97;57.76
8501;BME280;4288;48.484;10.024;2022-07-09T11:24:43;96491.84;;;20.98;57.65
8501;BME280;4288;48.484;10.024;2022-07-09T11:27:13;96480.97;;;20.98;57.65
8501;BME280;4288;48.484;10.024;2022-07-09T11:29:46;96484.47;;;20.98;57.66
8501;BME280;4288;48.484;10.024;2022-07-09T11:32:15;96485.22;;;20.99;57.66
8501;BME280;4288;48.484;10.024;2022-07-09T11:34:50;96483.28;;;20.99;57.73
8501;BME280;4288;48.484;10.024;2022-07-09T11:37:22;96492.56;;;21.02;57.59
8501;BME280;4288;48.484;10.024;2022-07-09T11:39:51;96477.03;;;21.02;57.62
8501;BME280;4288;48.484;10.024;2022-07-09T11:42:20;96475.81;;;21.03;57.43
8501;BME280;4288;48.484;10.024;2022-07-09T11:44:54;96475.41;;;21.05;57.49
8501;BME280;4288;48.484;10.024;2022-07-09T11:47:32;96470.72;;;21.05;57.44
8501;BME280;4288;48.484;10.024;2022-07-09T11:50:08;96469.56;;;21.06;57.13
8501;BME280;4288;48.484;10.024;2022-07-09T11:52:35;96473.78;;;21.07;57.49
8501;BME280;4288;48.484;10.024;2022-07-09T11:55:05;96467.59;;;21.07;57.19
8501;BME280;4288;48.484;10.024;2022-07-09T11:57:36;96463.69;;;21.08;57.33
8501;BME280;4288;48.484;10.024;2022-07-09T12:00:06;96459.00;;;21.08;57.52
8501;BME280;4288;48.484;10.024;2022-07-09T12:02:36;96459.00;;;21.08;57.33
8501;BME280;4288;48.484;10.024;2022-07-09T12:05:06;96445.75;;;21.10;57.42
8501;BME280;4288;48.484;10.024;2022-07-09T12:07:34;96448.06;;;21.12;57.45
8501;BME280;4288;48.484;10.024;2022-07-09T12:10:04;96448.78;;;21.12;57.35
8501;BME280;4288;48.484;10.024;2022-07-09T12:12:35;96437.94;;;21.12;57.33
8501;BME280;4288;48.484;10.024;2022-07-09T12:15:04;96442.19;;;21.13;57.20
8501;BME280;4288;48.484;10.024;2022-07-09T12:17:31;96439.47;;;21.13;57.30
8501;BME280;4288;48.484;10.024;2022-07-09T12:19:59;96429.38;;;21.14;57.24
8501;BME280;4288;48.484;10.024;2022-07-09T12:22:26;96433.59;;;21.15;57.30
8501;BME280;4288;48.484;10.024;2022-07-09T12:24:53;96435.88;;;21.16;57.47
8501;BME280;4288;48.484;10.024;2022-07-09T12:27:21;96426.22;;;21.15;57.42
8501;BME280;4288;48.484;10.024;2022-07-09T12:29:49;96428.16;;;21.15;57.34
8501;BME280;4288;48.484;10.024;2022-07-09T12:32:16;96423.50;;;21.15;57.55
8501;BME280;4288;48.484;10.024;2022-07-09T12:34:43;96427.00;;;21.16;57.67
8501;BME280;4288;48.484;10.024;2022-07-09T12:37:11;96422.28;;;21.16;57.50
8501;BME280;4288;48.484;10.024;2022-07-09T12:39:39;96421.13;;;21.17;57.51
8501;BME280;4288;48.484;10.024;2022-07-09T12:42:06;96423.84;;;21.17;57.66
8501;BME280;4288;48.484;10.024;2022-07-09T12:44:33;96419.16;;;21.18;57.51
8501;BME280;4288;48.484;10.024;2022-07-09T12:47:02;96419.16;;;21.18;57.53
8501;BME280;4288;48.484;10.024;2022-07-09T12:49:30;96415.25;;;21.19;57.71
8501;BME280;4288;48.484;10.024;2022-07-09T12:51:57;96410.56;;;21.19;57.69
8501;BME280;4288;48.484;10.024;2022-07-09T12:54:24;96409.03;;;21.18;57.52
8501;BME280;4288;48.484;10.024;2022-07-09T12:56:51;96417.53;;;21.20;57.84
8501;BME280;4288;48.484;10.024;2022-07-09T12:59:18;96411.34;;;21.20;57.71
8501;BME280;4288;48.484;10.024;2022-07-09T13:01:45;96403.94;;;21.20;57.63
8501;BME280;4288;48.484;10.024;2022-07-09T13:04:14;96405.47;;;21.21;57.95
8501;BME280;4288;48.484;10.024;2022-07-09T13:06:41;96396.56;;;21.21;57.84
8501;BME280;4288;48.484;10.024;2022-07-09T13:09:09;96403.53;;;21.22;57.91
8501;BME280;4288;48.484;10.024;2022-07-09T13:11:38;96407.00;;;21.22;57.68
8501;BME280;4288;48.484;10.024;2022-07-09T13:14:06;96402.75;;;21.21;57.83
8501;BME280;4288;48.484;10.024;2022-07-09T13:16:34;96396.88;;;21.23;57.89